Terminal Aerodrome Forecast
Issued by NWS

Home | Current Version | Previous Version | Text Only | Print | Product List | Glossary On
Versions: 1 2 3 4 5 6 7 8 9 10 11 12 13 14 15 16 17 18 19
000
FTUS43 KDVN 191144
TAFBRL
TAF
KBRL 191144Z 1912/2012 VRB03KT 1/4SM FG VV001
     FM191400 VRB03KT 2SM BR OVC004
     FM191500 VRB03KT 5SM BR BKN008
     FM191600 13005KT P6SM SCT015
     FM191800 16009KT P6SM SCT150=

USA.gov is the U.S. government's official web portal to all federal, state and local government web resources and services.